Time;durP1;ratioP1;P1;durP2;ratioP2;P2;SDS_P1;SDS_P2;PMS_P1;PMS_P2;Temp;Humidity;BMP_temperature;BMP_pressure;BME280_temperature;BME280_humidity;BME280_pressure;Samples;Min_cycle;Max_cycle;Signal;HPM_P1;HPM_P2
2023/10/07 07:34:18;;;;;;;;;10.00;6.33;;;;;26.39;37.32;102430.63;5270250;23;45375;-75
2023/10/07 07:36:48;;;;;;;;;7.67;6.67;;;;;26.41;37.29;102431.28;4976458;28;45394;-78
2023/10/07 07:39:18;;;;;;;;;6.67;6.67;;;;;26.44;37.90;102434.66;4974212;28;45476;-75
2023/10/07 07:41:56;;;;;;;;;7.00;5.00;;;;;26.49;37.61;102419.75;4975743;28;46087;-75
2023/10/07 07:44:32;;;;;;;;;7.33;5.00;;;;;26.54;37.63;102419.28;4964054;28;45487;-75
2023/10/07 07:47:02;;;;;;;;;6.67;6.00;;;;;26.75;37.90;102436.53;4974879;28;45234;-78
2023/10/07 07:49:36;;;;;;;;;8.00;6.00;;;;;26.98;37.85;102450.94;4976034;28;45482;-76
2023/10/07 07:52:02;;;;;;;;;6.00;5.00;;;;;27.18;37.32;102456.69;4977476;28;46556;-76
2023/10/07 07:54:29;;;;;;;;;6.00;6.00;;;;;27.36;38.00;102456.41;4977833;28;45467;-76
2023/10/07 07:56:54;;;;;;;;;7.33;6.00;;;;;27.55;37.10;102445.41;4977397;28;45401;-76
2023/10/07 07:59:21;;;;;;;;;5.33;5.00;;;;;27.84;37.53;102460.72;4977819;28;45414;-80
2023/10/07 08:01:59;;;;;;;;;9.67;5.67;;;;;28.15;36.91;102458.09;4977642;28;46182;-75
2023/10/07 08:04:42;;;;;;;;;8.00;7.67;;;;;28.54;36.24;102456.22;4961981;28;45559;-75
2023/10/07 08:07:18;;;;;;;;;6.00;6.00;;;;;28.85;35.74;102452.47;4970239;28;45277;-75
2023/10/07 08:09:45;;;;;;;;;6.00;6.00;;;;;29.10;35.33;102440.59;4977480;28;45515;-79
2023/10/07 08:12:18;;;;;;;;;5.00;5.00;;;;;29.42;35.17;102455.53;4976212;28;46278;-80
2023/10/07 08:14:45;;;;;;;;;5.33;5.33;;;;;29.77;34.86;102460.19;4966059;28;45357;-79
2023/10/07 08:17:11;;;;;;;;;6.00;5.00;;;;;29.99;34.52;102449.38;4976743;28;45417;-79
2023/10/07 08:19:37;;;;;;;;;4.67;4.67;;;;;30.32;34.25;102450.63;4977151;28;45572;-80
2023/10/07 08:22:05;;;;;;;;;7.33;7.00;;;;;30.38;33.24;102423.00;4977174;28;46560;-81
2023/10/07 08:24:39;;;;;;;;;5.33;5.33;;;;;30.85;33.17;102463.47;4977196;28;45366;-79
2023/10/07 08:27:22;;;;;;;;;5.00;5.00;;;;;30.76;33.22;102451.22;4977030;28;45369;-82
2023/10/07 08:29:53;;;;;;;;;4.00;4.00;;;;;30.72;33.45;102450.81;4966956;28;45321;-82
2023/10/07 08:32:41;;;;;;;;;4.00;4.00;;;;;30.60;33.48;102442.50;4976348;28;45349;-82
2023/10/07 08:35:18;;;;;;;;;4.00;3.67;;;;;30.48;33.84;102454.84;4977452;28;45365;-81
2023/10/07 08:37:45;;;;;;;;;5.00;5.00;;;;;30.22;33.94;102434.84;4971532;28;45357;-82
2023/10/07 08:40:25;;;;;;;;;6.00;3.33;;;;;29.89;34.15;102418.38;4976867;28;45185;-82
2023/10/07 08:42:58;;;;;;;;;5.00;3.33;;;;;29.89;34.29;102461.31;4976586;28;47112;-82
2023/10/07 08:45:28;;;;;;;;;4.67;4.00;;;;;29.84;34.37;102482.53;4976730;28;45310;-82
2023/10/07 08:48:08;;;;;;;;;4.67;4.67;;;;;29.69;34.94;102469.16;4976863;28;45417;-82
2023/10/07 08:50:42;;;;;;;;;2.67;2.67;;;;;29.34;34.90;102440.41;4976502;28;45420;-82
2023/10/07 08:53:07;;;;;;;;;2.67;1.00;;;;;29.39;35.20;102473.66;4965070;28;46086;-82
2023/10/07 08:55:33;;;;;;;;;3.67;3.33;;;;;29.24;35.54;102471.03;4976329;28;49714;-82
2023/10/07 08:58:03;;;;;;;;;4.00;4.00;;;;;29.10;35.63;102455.81;4977259;28;45378;-82
2023/10/07 09:00:32;;;;;;;;;5.00;5.00;;;;;29.10;35.62;102474.59;4976491;28;45413;-82
2023/10/07 09:02:59;;;;;;;;;4.00;4.00;;;;;29.01;35.74;102469.34;4976099;28;46004;-82
2023/10/07 09:05:27;;;;;;;;;6.00;4.00;;;;;28.85;35.57;102455.16;4976483;28;45453;-82
2023/10/07 09:07:56;;;;;;;;;6.67;5.33;;;;;28.86;36.19;102474.69;4977133;28;45380;-83
2023/10/07 09:10:28;;;;;;;;;4.00;4.00;;;;;28.77;35.81;102474.00;4976266;28;45524;-82
2023/10/07 09:12:56;;;;;;;;;7.67;4.00;;;;;28.72;36.14;102484.44;4975273;28;46103;-83
2023/10/07 09:15:34;;;;;;;;;7.00;7.00;;;;;28.51;35.87;102467.28;4974795;28;45569;-80
2023/10/07 09:18:03;;;;;;;;;10.67;7.00;;;;;28.57;35.29;102482.63;4976614;28;45239;-81
2023/10/07 15:19:21;;;;;;;;;4.33;3.00;;;;;27.00;39.98;102377.63;5582103;22;46673;-86
2023/10/07 15:21:51;;;;;;;;;3.00;1.00;;;;;27.05;40.02;102382.44;4973885;28;45459;-84
2023/10/07 15:24:16;;;;;;;;;2.00;2.00;;;;;26.87;40.21;102353.34;4970947;28;46370;-81
2023/10/07 15:26:43;;;;;;;;;5.00;4.00;;;;;27.00;40.64;102374.97;4979525;28;45428;-82
2023/10/07 15:29:08;;;;;;;;;5.00;3.00;;;;;27.07;39.52;102391.09;4977983;28;45325;-79
2023/10/07 15:31:34;;;;;;;;;2.67;2.33;;;;;27.06;39.19;102395.59;4978728;28;45385;-83
2023/10/07 15:34:10;;;;;;;;;5.67;3.00;;;;;27.04;38.92;102391.44;4978376;28;46004;-79
2023/10/07 15:36:37;;;;;;;;;3.33;3.33;;;;;26.56;38.38;102329.19;4977871;28;45314;-79
2023/10/07 15:39:03;;;;;;;;;4.67;3.00;;;;;26.81;38.28;102363.72;4977764;28;45561;-78
2023/10/07 15:41:29;;;;;;;;;3.33;3.00;;;;;26.96;38.23;102384.31;4976744;28;45457;-77
2023/10/07 15:43:54;;;;;;;;;4.00;4.00;;;;;26.99;38.81;102391.16;4977958;28;47152;-82
2023/10/07 15:46:20;;;;;;;;;3.00;3.00;;;;;26.98;38.28;102392.19;4980997;28;45380;-83
2023/10/07 15:48:46;;;;;;;;;5.00;3.67;;;;;26.83;38.76;102375.06;4981209;28;45712;-83
2023/10/07 15:51:13;;;;;;;;;4.00;4.00;;;;;26.87;39.01;102378.22;4975255;28;45469;-79
2023/10/07 15:53:40;;;;;;;;;5.00;4.00;;;;;26.80;38.70;102370.09;4969995;28;46187;-81
2023/10/07 15:56:06;;;;;;;;;5.00;4.00;;;;;26.62;38.55;102349.81;4958834;28;45565;-80
2023/10/07 15:58:38;;;;;;;;;4.00;4.00;;;;;26.81;39.14;102374.41;4977423;28;45440;-77
2023/10/07 16:01:04;;;;;;;;;4.00;4.00;;;;;26.82;38.79;102376.09;4977578;28;45623;-80
2023/10/07 16:03:33;;;;;;;;;3.00;3.00;;;;;26.87;39.11;102382.72;4968730;28;45652;-80
2023/10/07 16:06:03;;;;;;;;;3.00;3.00;;;;;26.84;39.26;102389.25;4976189;28;45290;-78
2023/10/07 16:08:36;;;;;;;;;5.33;4.00;;;;;26.83;39.08;102392.91;4975771;28;45448;-78
2023/10/07 16:11:02;;;;;;;;;6.00;3.00;;;;;26.72;39.31;102376.31;4977386;28;45440;-79
2023/10/07 16:13:29;;;;;;;;;2.00;2.00;;;;;26.81;38.73;102392.25;4958922;28;48183;-77
2023/10/07 16:16:09;;;;;;;;;3.00;3.00;;;;;26.60;39.12;102364.34;4976610;28;45269;-80
2023/10/07 16:18:35;;;;;;;;;2.67;2.67;;;;;26.77;39.29;102390.97;4963505;28;45451;-79
2023/10/07 16:21:07;;;;;;;;;6.00;3.00;;;;;26.56;39.19;102365.69;4976817;28;45373;-80
2023/10/07 16:23:33;;;;;;;;;5.00;4.67;;;;;26.71;39.49;102389.81;4976518;28;45509;-82
2023/10/07 16:25:58;;;;;;;;;5.33;4.00;;;;;26.72;38.70;102392.31;4977369;28;45397;-79
2023/10/07 16:28:23;;;;;;;;;3.67;3.00;;;;;26.53;39.23;102364.22;4964036;28;45436;-80
2023/10/07 16:30:49;;;;;;;;;4.00;3.33;;;;;26.69;39.22;102391.84;4977062;28;45417;-78
2023/10/07 16:33:14;;;;;;;;;5.00;4.00;;;;;26.62;39.61;102387.19;4965301;28;45628;-82
2023/10/07 16:35:39;;;;;;;;;3.00;3.00;;;;;26.66;39.54;102386.84;4960947;28;46483;-81
2023/10/07 16:38:04;;;;;;;;;3.00;3.00;;;;;26.59;39.49;102390.22;4963872;28;45352;-81
2023/10/07 16:40:30;;;;;;;;;4.00;3.00;;;;;26.62;39.96;102400.53;4964053;28;45504;-82
2023/10/07 16:42:55;;;;;;;;;4.00;3.00;;;;;26.52;39.42;102381.22;4954537;28;48005;-85
2023/10/07 16:45:21;;;;;;;;;4.33;4.00;;;;;26.57;39.91;102402.06;4976275;28;45377;-83
2023/10/07 16:47:46;;;;;;;;;5.00;4.33;;;;;26.57;39.47;102396.75;4975820;28;45424;-84
2023/10/07 16:50:14;;;;;;;;;3.33;3.00;;;;;26.28;39.79;102365.09;4976631;28;45451;-85
2023/10/07 16:52:40;;;;;;;;;3.00;3.00;;;;;26.52;39.92;102410.56;4947749;28;46490;-76
2023/10/07 16:55:09;;;;;;;;;4.67;3.67;;;;;26.47;39.46;102404.94;4950644;28;45545;-76
2023/10/07 16:57:35;;;;;;;;;5.00;5.00;;;;;26.39;40.08;102403.09;4966388;28;45610;-80
2023/10/07 17:00:01;;;;;;;;;3.00;3.00;;;;;26.39;40.18;102393.25;4971081;28;45540;-78
2023/10/07 17:02:26;;;;;;;;;3.00;3.00;;;;;26.33;39.95;102393.97;4966808;28;45524;-78
2023/10/07 17:04:55;;;;;;;;;5.67;5.00;;;;;26.41;40.06;102409.13;4951257;28;45377;-79
2023/10/07 17:07:20;;;;;;;;;4.00;4.00;;;;;26.28;40.32;102397.13;4959944;28;45880;-78
2023/10/07 17:09:45;;;;;;;;;5.33;5.00;;;;;26.35;40.52;102405.28;4951548;28;45746;-80
2023/10/07 17:12:11;;;;;;;;;4.00;4.00;;;;;26.36;40.00;102412.28;4950706;28;46211;-78
2023/10/07 17:14:37;;;;;;;;;7.33;4.33;;;;;26.38;39.71;102414.78;4954563;28;51171;-78
2023/10/07 17:17:03;;;;;;;;;4.00;4.00;;;;;26.32;39.62;102402.97;4961418;28;45411;-78
2023/10/07 17:19:30;;;;;;;;;5.67;4.67;;;;;26.31;40.00;102409.28;4963904;28;46428;-78
2023/10/07 17:21:56;;;;;;;;;6.67;4.00;;;;;26.33;40.29;102409.13;4954091;28;46227;-79
2023/10/07 17:24:21;;;;;;;;;4.00;4.00;;;;;26.25;40.09;102410.00;4967196;28;45645;-79
2023/10/07 17:26:47;;;;;;;;;7.00;5.33;;;;;26.07;40.63;102381.69;4936765;28;45643;-80
2023/10/07 17:29:12;;;;;;;;;6.00;5.67;;;;;26.00;40.87;102375.34;4957727;28;45652;-80
2023/10/07 17:31:37;;;;;;;;;5.33;3.67;;;;;26.13;40.98;102402.34;4948902;28;48173;-80
2023/10/07 17:34:03;;;;;;;;;5.00;5.00;;;;;26.18;41.05;102407.16;4951686;28;45521;-81
2023/10/07 17:36:29;;;;;;;;;9.00;5.33;;;;;26.12;41.38;102410.53;4951449;28;46415;-79
2023/10/07 17:38:54;;;;;;;;;8.00;6.67;;;;;26.09;41.36;102417.03;4950631;28;45580;-84
2023/10/07 17:41:21;;;;;;;;;7.67;6.00;;;;;26.01;41.04;102412.53;4950049;28;47306;-80
2023/10/07 17:43:46;;;;;;;;;8.00;7.00;;;;;26.05;41.51;102423.69;4952048;28;45726;-82
2023/10/07 17:46:13;;;;;;;;;9.33;7.00;;;;;25.81;42.12;102404.91;4950332;28;45636;-82
2023/10/07 17:48:38;;;;;;;;;6.00;6.00;;;;;25.90;41.84;102421.72;4958436;28;46149;-78
2023/10/07 17:51:05;;;;;;;;;7.67;5.67;;;;;25.76;42.07;102411.75;4947197;28;46098;-79
2023/10/07 17:53:36;;;;;;;;;8.00;5.00;;;;;25.78;41.95;102423.91;4953371;28;45428;-80
2023/10/07 17:56:05;;;;;;;;;6.33;4.00;;;;;25.57;42.21;102392.38;4924353;28;45413;-87
2023/10/07 17:58:31;;;;;;;;;9.00;7.00;;;;;25.49;42.32;102386.06;4957586;28;45946;-82
2023/10/07 18:00:59;;;;;;;;;9.67;8.33;;;;;25.74;42.55;102431.41;4952510;28;46342;-80
2023/10/07 18:03:25;;;;;;;;;6.67;6.00;;;;;25.56;42.30;102402.22;4950747;28;45521;-80
2023/10/07 18:05:51;;;;;;;;;9.00;9.00;;;;;25.68;42.22;102432.03;4953548;28;45331;-79
2023/10/07 18:08:18;;;;;;;;;8.67;6.33;;;;;25.60;42.46;102424.88;4955084;28;45374;-80
2023/10/07 18:10:44;;;;;;;;;9.67;8.00;;;;;25.56;42.56;102415.53;4968511;28;46042;-79
2023/10/07 18:13:10;;;;;;;;;9.33;6.67;;;;;25.62;42.47;102425.53;4977053;28;45829;-81
2023/10/07 18:15:39;;;;;;;;;7.33;5.00;;;;;25.63;42.68;102424.53;4979224;28;45397;-81
2023/10/07 18:18:05;;;;;;;;;6.33;6.00;;;;;25.72;42.67;102433.38;4978210;28;45631;-81
2023/10/07 18:20:31;;;;;;;;;5.00;5.00;;;;;25.81;42.77;102425.41;4978822;28;47034;-82
2023/10/07 18:22:57;;;;;;;;;6.33;5.67;;;;;25.87;42.23;102430.03;4979610;28;45606;-83
2023/10/07 18:25:23;;;;;;;;;5.00;5.00;;;;;25.93;42.56;102423.22;4979520;28;45397;-80
2023/10/07 18:27:50;;;;;;;;;6.75;6.00;;;;;25.93;42.04;102429.38;4979729;28;45464;-87
2023/10/07 18:30:18;;;;;;;;;9.33;7.00;;;;;25.92;42.15;102421.53;4979053;28;46417;-78
2023/10/07 18:32:44;;;;;;;;;8.00;5.67;;;;;25.90;42.38;102418.22;4979078;28;45376;-84
2023/10/07 18:35:09;;;;;;;;;8.00;6.67;;;;;25.84;42.31;102403.75;4979303;28;45343;-79
2023/10/07 18:37:35;;;;;;;;;7.00;6.00;;;;;26.03;42.34;102428.38;4979277;28;45222;-83
2023/10/07 18:40:02;;;;;;;;;10.33;7.33;;;;;26.06;42.76;102425.38;4976200;28;46466;-76
2023/10/07 18:42:32;;;;;;;;;8.00;8.00;;;;;26.10;42.88;102424.00;4968257;28;46882;-75
2023/10/07 18:45:00;;;;;;;;;5.67;5.67;;;;;26.03;42.88;102405.19;4975123;28;45677;-75
2023/10/07 18:47:27;;;;;;;;;9.67;7.00;;;;;26.09;42.72;102413.53;4974900;28;45982;-79
2023/10/07 18:49:53;;;;;;;;;9.00;9.00;;;;;26.24;43.15;102424.31;4970095;28;46065;-76
2023/10/07 18:52:18;;;;;;;;;9.33;9.33;;;;;26.16;42.92;102409.16;4974291;28;45473;-76
2023/10/07 18:54:44;;;;;;;;;12.25;10.75;;;;;26.26;42.99;102431.16;4975046;28;45547;-75
2023/10/07 18:57:10;;;;;;;;;10.00;8.67;;;;;26.26;43.21;102431.16;4978517;28;45746;-74
2023/10/07 18:59:35;;;;;;;;;14.25;12.75;;;;;26.15;43.22;102421.66;4976849;28;46372;-81
2023/10/07 19:02:01;;;;;;;;;15.00;11.75;;;;;26.14;43.64;102419.19;4973417;28;45472;-80
2023/10/07 19:04:27;;;;;;;;;11.00;9.75;;;;;26.05;43.18;102399.69;4975300;28;46080;-81
2023/10/07 19:06:53;;;;;;;;;13.33;12.33;;;;;26.22;43.22;102411.16;4978185;28;45488;-86
2023/10/07 19:09:18;;;;;;;;;14.67;11.67;;;;;26.34;43.31;102434.78;4978038;28;45386;-87
2023/10/07 19:11:43;;;;;;;;;9.33;9.33;;;;;26.36;43.01;102436.28;4976427;28;45480;-84
2023/10/07 19:14:09;;;;;;;;;10.33;10.00;;;;;26.39;43.00;102437.78;4977393;28;44811;-84
2023/10/07 19:16:35;;;;;;;;;12.75;10.75;;;;;26.34;43.50;102424.13;4978094;28;45278;-84
2023/10/07 19:19:04;;;;;;;;;17.67;12.33;;;;;26.40;43.22;102426.94;4976381;28;46481;-84
2023/10/07 19:21:29;;;;;;;;;14.67;13.67;;;;;26.47;43.11;102434.28;4968473;28;45406;-88
2023/10/07 19:23:55;;;;;;;;;11.00;11.00;;;;;26.49;43.07;102434.97;4978788;28;45285;-86
2023/10/07 19:26:20;;;;;;;;;13.67;11.00;;;;;26.50;43.20;102436.63;4973003;28;45413;-88
2023/10/07 19:28:47;;;;;;;;;15.00;12.00;;;;;26.23;42.86;102393.31;4970527;28;45287;-84
2023/10/07 19:31:14;;;;;;;;;13.00;11.00;;;;;26.53;42.73;102444.28;4977685;28;45397;-85
2023/10/07 19:33:41;;;;;;;;;11.00;11.00;;;;;26.55;43.05;102444.94;4978481;28;45359;-85
2023/10/07 19:36:07;;;;;;;;;10.33;10.00;;;;;26.57;43.17;102440.25;4976766;28;45422;-83
2023/10/07 19:38:34;;;;;;;;;10.00;10.00;;;;;26.54;42.83;102440.63;4977236;28;46558;-84
2023/10/07 19:40:59;;;;;;;;;11.50;8.75;;;;;26.60;42.57;102439.06;4973546;28;45507;-85
2023/10/07 19:43:25;;;;;;;;;14.33;12.33;;;;;26.63;42.97;102449.41;4968463;28;45437;-88
2023/10/07 19:45:51;;;;;;;;;13.67;11.00;;;;;26.64;42.30;102443.09;4978549;28;45362;-86
2023/10/07 19:48:16;;;;;;;;;12.00;12.00;;;;;26.48;42.62;102417.28;4977349;28;45527;-82
2023/10/07 19:50:43;;;;;;;;;11.00;11.00;;;;;26.56;42.89;102432.44;4977431;28;45358;-86
2023/10/07 19:53:09;;;;;;;;;13.67;11.00;;;;;26.61;42.77;102435.41;4974439;28;45510;-85
2023/10/07 19:55:35;;;;;;;;;13.67;10.00;;;;;26.58;42.93;102439.25;4975305;28;45282;-76
2023/10/07 19:58:00;;;;;;;;;13.33;13.33;;;;;26.67;42.48;102452.59;4974190;28;46064;-78
2023/10/07 20:00:26;;;;;;;;;14.00;13.00;;;;;26.53;42.33;102428.28;4975745;28;45239;-78
2023/10/07 20:02:52;;;;;;;;;11.00;10.33;;;;;26.61;42.85;102435.41;4976955;28;45484;-85
2023/10/07 20:05:18;;;;;;;;;13.33;10.33;;;;;26.60;42.70;102442.59;4976472;28;45467;-78
2023/10/07 20:07:48;;;;;;;;;14.00;11.00;;;;;26.70;42.64;102446.91;4977197;28;45360;-78
2023/10/07 20:10:14;;;;;;;;;12.25;10.75;;;;;26.75;42.60;102457.91;4976710;28;45457;-78
2023/10/07 20:12:40;;;;;;;;;15.00;12.67;;;;;26.63;43.35;102436.06;4976232;28;45310;-77
2023/10/07 20:15:09;;;;;;;;;8.00;8.00;;;;;26.77;43.12;102455.88;4977482;28;45339;-80
2023/10/07 20:17:36;;;;;;;;;10.00;8.67;;;;;26.51;42.90;102414.28;4977261;28;47220;-79
2023/10/07 20:20:05;;;;;;;;;10.00;10.00;;;;;26.82;43.40;102466.03;4976146;28;45444;-79
2023/10/07 20:22:31;;;;;;;;;11.00;10.00;;;;;26.83;43.04;102470.34;4977447;28;45405;-80
2023/10/07 20:24:57;;;;;;;;;10.33;9.33;;;;;26.85;43.16;102474.50;4976674;28;45844;-80
2023/10/07 20:27:23;;;;;;;;;10.00;9.67;;;;;26.87;42.97;102478.84;4975214;28;46570;-81
2023/10/07 20:29:49;;;;;;;;;14.00;10.00;;;;;26.87;43.56;102476.19;4976524;28;45398;-80
2023/10/07 20:32:14;;;;;;;;;11.67;10.67;;;;;26.53;43.72;102420.25;4976990;28;45961;-82
2023/10/07 20:34:39;;;;;;;;;9.33;9.33;;;;;26.81;43.79;102459.84;4977334;28;45468;-80
2023/10/07 20:37:05;;;;;;;;;9.33;9.33;;;;;26.68;43.91;102441.72;4977353;28;46269;-80
2023/10/07 20:39:30;;;;;;;;;11.00;11.00;;;;;26.81;43.46;102457.19;4977425;28;45364;-80
2023/10/07 20:41:55;;;;;;;;;12.67;11.00;;;;;26.82;43.38;102463.34;4975104;28;45537;-78
2023/10/07 20:44:21;;;;;;;;;16.00;12.33;;;;;26.80;43.19;102465.38;4975553;28;45352;-76
2023/10/07 20:46:46;;;;;;;;;12.33;12.00;;;;;26.89;42.19;102472.34;4958859;28;58942;-79
2023/10/07 20:49:14;;;;;;;;;13.33;12.33;;;;;26.80;41.97;102462.72;4976391;28;45283;-79
2023/10/07 20:51:41;;;;;;;;;11.33;10.00;;;;;26.74;42.23;102458.88;4977555;28;45723;-82
2023/10/07 20:54:07;;;;;;;;;13.33;12.33;;;;;26.81;41.72;102473.19;4976916;28;45484;-83
2023/10/07 20:56:32;;;;;;;;;12.00;10.00;;;;;26.79;41.68;102472.56;4977565;28;45445;-84
2023/10/07 20:58:57;;;;;;;;;12.00;10.67;;;;;26.57;41.16;102442.91;4977461;28;45749;-84
2023/10/07 21:01:24;;;;;;;;;13.00;11.00;;;;;26.56;41.13;102441.28;4978813;28;45286;-82
2023/10/07 21:03:51;;;;;;;;;11.00;9.00;;;;;26.70;41.55;102474.41;4976899;28;45517;-80
2023/10/07 21:06:18;;;;;;;;;11.33;9.00;;;;;26.67;40.88;102468.59;4975932;28;46049;-80
2023/10/07 21:08:44;;;;;;;;;11.67;10.00;;;;;26.45;41.08;102437.13;4977099;28;45255;-84
2023/10/07 21:11:10;;;;;;;;;11.67;11.00;;;;;26.61;40.68;102470.94;4977250;28;45326;-83
2023/10/07 21:13:37;;;;;;;;;11.33;9.00;;;;;26.59;40.98;102464.97;4977000;28;45620;-81
2023/10/07 21:16:02;;;;;;;;;10.33;9.67;;;;;26.35;40.66;102441.81;4976757;28;46037;-81
2023/10/07 21:18:28;;;;;;;;;14.00;9.00;;;;;26.54;41.02;102471.81;4976625;28;45297;-84
2023/10/07 21:20:54;;;;;;;;;10.00;9.00;;;;;26.48;40.61;102465.31;4971972;28;45468;-83
2023/10/07 21:23:19;;;;;;;;;11.33;10.00;;;;;26.49;40.89;102475.81;4976045;28;45298;-81
2023/10/07 21:25:46;;;;;;;;;10.33;10.00;;;;;26.38;41.18;102455.66;4976482;28;45290;-82
2023/10/07 21:28:14;;;;;;;;;12.33;10.67;;;;;26.46;40.67;102470.00;4976862;28;45548;-82
2023/10/07 21:30:41;;;;;;;;;13.67;12.33;;;;;26.43;41.14;102462.31;4959606;28;45275;-89
2023/10/07 21:33:07;;;;;;;;;19.33;13.33;;;;;26.38;40.47;102462.81;4973346;28;45287;-82
2023/10/07 21:35:34;;;;;;;;;13.00;11.33;;;;;26.01;41.17;102406.38;4972474;28;47232;-80
2023/10/07 21:38:00;;;;;;;;;13.33;12.00;;;;;26.16;40.79;102436.69;4968137;28;45485;-79
2023/10/07 21:40:25;;;;;;;;;13.00;10.67;;;;;26.12;41.01;102432.69;4975765;28;45464;-82
2023/10/07 21:42:51;;;;;;;;;14.33;11.67;;;;;26.24;40.77;102459.84;4971979;28;45472;-81
2023/10/07 21:45:16;;;;;;;;;12.67;11.67;;;;;26.14;41.29;102445.84;4962753;28;46300;-81
2023/10/07 21:47:42;;;;;;;;;13.00;11.00;;;;;26.16;40.75;102447.34;4975436;28;45352;-83
2023/10/07 21:50:10;;;;;;;;;10.00;8.00;;;;;26.25;40.71;102469.53;4975088;28;45306;-82
2023/10/07 21:52:35;;;;;;;;;11.00;11.00;;;;;26.02;40.73;102434.72;4968018;28;45464;-82
2023/10/07 21:55:01;;;;;;;;;13.67;10.00;;;;;26.23;40.75;102476.84;4970510;28;46132;-80
2023/10/07 21:57:26;;;;;;;;;11.00;10.00;;;;;26.22;41.26;102467.19;4974568;28;45309;-79
2023/10/07 21:59:52;;;;;;;;;9.67;9.67;;;;;26.20;41.26;102469.19;4965355;28;45583;-80
2023/10/07 22:02:17;;;;;;;;;10.00;10.00;;;;;26.06;40.87;102442.22;4976263;28;45426;-84
2023/10/07 22:04:43;;;;;;;;;12.33;9.00;;;;;26.03;40.99;102436.38;4976038;28;45948;-79
2023/10/07 22:07:08;;;;;;;;;9.33;9.33;;;;;26.17;41.02;102459.69;4975904;28;45449;-81
2023/10/07 22:09:33;;;;;;;;;12.00;9.00;;;;;26.07;40.74;102462.53;4976581;28;45310;-79
2023/10/07 22:12:00;;;;;;;;;11.67;9.33;;;;;25.90;41.23;102439.53;4976205;28;45348;-79
2023/10/07 22:14:26;;;;;;;;;13.67;11.00;;;;;26.03;40.78;102463.88;4976215;28;47456;-79
2023/10/07 22:16:54;;;;;;;;;11.67;10.00;;;;;26.05;41.16;102466.34;4976083;28;45496;-79
2023/10/07 22:19:19;;;;;;;;;11.00;10.67;;;;;26.06;41.01;102462.69;4976129;28;45302;-80
2023/10/07 22:21:45;;;;;;;;;10.00;8.67;;;;;26.05;41.28;102459.19;4975741;28;45417;-80
2023/10/07 22:24:10;;;;;;;;;11.33;10.00;;;;;25.94;41.33;102433.69;4975945;28;45949;-79
2023/10/07 22:26:39;;;;;;;;;10.67;9.67;;;;;25.81;41.50;102420.06;4975922;28;45405;-79
2023/10/07 22:29:06;;;;;;;;;9.33;9.33;;;;;26.07;41.22;102456.38;4976032;28;45438;-80
2023/10/07 22:31:35;;;;;;;;;10.33;7.33;;;;;26.06;41.90;102460.03;4976111;28;45401;-80
2023/10/07 22:34:00;;;;;;;;;9.33;9.00;;;;;26.03;41.21;102447.03;4975983;28;46180;-79
2023/10/07 22:36:35;;;;;;;;;10.00;10.00;;;;;26.05;41.10;102453.84;4975520;28;45298;-79
2023/10/07 22:39:03;;;;;;;;;10.33;9.67;;;;;26.09;41.72;102464.19;4976031;28;45472;-79
2023/10/07 22:41:37;;;;;;;;;11.00;9.00;;;;;26.19;41.60;102475.53;4975804;28;45482;-80
2023/10/07 22:44:15;;;;;;;;;9.00;9.00;;;;;26.21;41.84;102470.00;4956334;28;46169;-80
2023/10/07 22:46:42;;;;;;;;;10.67;9.00;;;;;25.93;41.09;102423.22;4956340;28;45378;-80
2023/10/07 22:49:07;;;;;;;;;9.67;8.33;;;;;26.22;41.55;102477.84;4956414;28;45457;-80
2023/10/07 22:51:33;;;;;;;;;10.00;8.00;;;;;26.24;41.70;102480.34;4958608;28;45531;-80
2023/10/07 22:54:01;;;;;;;;;7.33;7.00;;;;;26.05;41.66;102448.53;4942253;28;47264;-80
2023/10/07 22:56:28;;;;;;;;;8.33;7.33;;;;;26.22;41.37;102466.34;4959705;28;45546;-80
2023/10/07 22:58:54;;;;;;;;;7.00;6.33;;;;;26.19;41.92;102459.50;4959477;28;45297;-79
2023/10/07 23:01:41;;;;;;;;;7.33;7.00;;;;;26.16;41.64;102452.69;4959595;28;45380;-80
2023/10/07 23:04:13;;;;;;;;;9.00;9.00;;;;;26.23;41.70;102460.03;4959358;28;46459;-79
2023/10/07 23:06:39;;;;;;;;;8.00;6.67;;;;;26.26;41.73;102459.66;4959167;28;45346;-79
2023/10/07 23:09:21;;;;;;;;;8.00;8.00;;;;;26.26;41.79;102465.00;4959413;28;45328;-79
2023/10/07 23:11:48;;;;;;;;;9.00;8.00;;;;;26.17;41.73;102441.03;4959474;28;45499;-80
2023/10/07 23:14:22;;;;;;;;;7.00;7.00;;;;;26.24;41.29;102451.00;4959146;28;46972;-79
2023/10/07 23:16:50;;;;;;;;;9.00;8.00;;;;;26.34;41.49;102464.13;4959156;28;45349;-80
2023/10/07 23:19:39;;;;;;;;;11.00;8.67;;;;;26.21;41.30;102438.00;4941530;28;45369;-80
2023/10/07 23:22:23;;;;;;;;;10.33;8.67;;;;;26.28;41.17;102447.81;4969716;28;45333;-81
2023/10/07 23:24:52;;;;;;;;;8.67;7.33;;;;;26.30;41.37;102450.31;4977298;28;48715;-80
2023/10/07 23:27:21;;;;;;;;;9.00;9.00;;;;;26.22;41.84;102432.50;4978599;28;45372;-80
2023/10/07 23:29:54;;;;;;;;;10.33;8.00;;;;;26.34;41.18;102456.97;4978768;28;45453;-80
2023/10/07 23:34:54;;;;;;;;;10.00;8.67;;;;;26.23;41.80;102436.81;4978105;28;45468;-80
2023/10/07 23:37:26;;;;;;;;;11.00;8.00;;;;;26.34;41.47;102458.81;4978663;28;45383;-80
2023/10/07 23:39:58;;;;;;;;;8.00;7.33;;;;;26.26;41.77;102438.31;4978627;28;45357;-79
2023/10/07 23:42:31;;;;;;;;;11.00;9.00;;;;;26.37;41.60;102461.13;4972495;28;45533;-80
2023/10/07 23:45:06;;;;;;;;;8.67;7.67;;;;;26.25;41.92;102444.66;4958936;28;45415;-81
2023/10/07 23:47:32;;;;;;;;;12.00;7.00;;;;;26.33;40.92;102452.66;4958899;28;45418;-81
2023/10/07 23:49:58;;;;;;;;;7.00;7.00;;;;;26.37;41.18;102455.81;4958799;28;45338;-81
2023/10/07 23:52:24;;;;;;;;;7.67;7.33;;;;;26.38;41.34;102457.47;4959050;28;45430;-81
2023/10/07 23:54:57;;;;;;;;;7.33;7.00;;;;;26.36;41.24;102462.16;4958909;28;45372;-80
2023/10/07 23:57:29;;;;;;;;;8.00;7.33;;;;;26.37;41.96;102458.47;4958739;28;45442;-80
2023/10/07 23:59:58;;;;;;;;;8.33;7.00;;;;;26.06;41.39;102406.69;4958868;28;45358;-80
